| time (UTC) | temp F | wind direction | speed MPH | gust MPH | rain 1hr in | rain 24hr in | rain mn in | humidity % | barometer mb |
| 20260507130053 | 67 | 227 | 2.0 | 5.0 | 1.00 | 2.11 | 2.04 | 99 | 1009.0 |
| 20260507124553 | 67 | 248 | 2.0 | 5.0 | 1.22 | 1.89 | 1.82 | 99 | 1009.0 |
| 20260507123109 | 67 | 239 | 2.0 | 5.0 | 1.12 | 1.65 | 1.58 | 99 | 1009.1 |
| 20260507121551 | 68 | 282 | 0.0 | 6.0 | 0.76 | 1.28 | 1.21 | 98 | 1009.7 |
| 20260507120050 | 68 | 269 | 6.0 | 11.0 | 0.56 | 1.09 | 1.02 | 98 | 1009.0 |
| 20260507114553 | 67 | 237 | 4.0 | 15.0 | 0.13 | 0.65 | 0.57 | 98 | 1009.0 |
| 20260507113047 | 67 | 245 | 1.0 | 7.0 | 0.00 | 0.52 | 0.45 | 98 | 1008.2 |
| 20260507111547 | 67 | 250 | 5.0 | 11.0 | 0.00 | 0.52 | 0.45 | 98 | 1008.3 |
| 20260507110050 | 67 | 252 | 3.0 | 11.0 | 0.01 | 0.52 | 0.45 | 98 | 1008.8 |
| 20260507104646 | 67 | 260 | 4.0 | 10.0 | 0.04 | 0.52 | 0.45 | 98 | 1008.6 |
| 20260507103044 | 67 | 115 | 1.0 | 5.0 | 0.11 | 0.52 | 0.45 | 98 | 1008.2 |
| 20260507101543 | 67 | 258 | 2.0 | 10.0 | 0.14 | 0.52 | 0.45 | 98 | 1008.3 |
| 20260507100053 | 67 | 195 | 3.0 | 11.0 | 0.14 | 0.51 | 0.44 | 98 | 1006.6 |
| 20260507094539 | 67 | 244 | 3.0 | 8.0 | 0.10 | 0.47 | 0.40 | 98 | 1009.0 |
| 20260507093037 | 67 | 245 | 3.0 | 9.0 | 0.03 | 0.40 | 0.33 | 98 | 1010.8 |
| 20260507091540 | 67 | 285 | 4.0 | 7.0 | 0.01 | 0.38 | 0.31 | 98 | 1009.8 |
| 20260507090040 | 67 | 207 | 1.0 | 6.0 | 0.00 | 0.37 | 0.30 | 98 | 1009.9 |
| 20260507084543 | 67 | 211 | 2.0 | 5.0 | 0.00 | 0.37 | 0.30 | 98 | 1010.0 |
| 20260507083035 | 67 | 204 | 3.0 | 5.0 | 0.00 | 0.37 | 0.30 | 98 | 1010.0 |
| 20260507081534 | 67 | 248 | 1.0 | 4.0 | 0.01 | 0.37 | 0.30 | 98 | 1009.8 |
| 20260507080033 | 67 | 288 | 0.0 | 7.0 | 0.05 | 0.37 | 0.30 | 97 | 1009.9 |
| 20260507074534 | 67 | 237 | 2.0 | 8.0 | 0.05 | 0.37 | 0.30 | 97 | 1009.9 |
| 20260507073032 | 67 | 229 | 0.0 | 5.0 | 0.07 | 0.37 | 0.30 | 97 | 1009.6 |
| 20260507071534 | 67 | 252 | 2.0 | 7.0 | 0.08 | 0.36 | 0.28 | 97 | 1009.1 |
| 20260507070032 | 67 | 241 | 5.0 | 11.0 | 0.07 | 0.32 | 0.25 | 97 | 1010.1 |
| 20260507064539 | 67 | 158 | 2.0 | 5.0 | 0.13 | 0.32 | 0.25 | 96 | 1009.3 |
| 20260507063024 | 68 | 250 | 2.0 | 9.0 | 0.17 | 0.30 | 0.23 | 96 | 1010.2 |
| 20260507061522 | 68 | 264 | 5.0 | 14.0 | 0.17 | 0.27 | 0.20 | 96 | 1010.5 |
| 20260507060019 | 68 | 277 | 3.0 | 10.0 | 0.17 | 0.25 | 0.18 | 95 | 1010.3 |
| 20260507054516 | 68 | 240 | 5.0 | 12.0 | 0.11 | 0.19 | 0.12 | 94 | 1011.2 |
| 20260507053013 | 69 | 228 | 4.0 | 12.0 | 0.06 | 0.13 | 0.06 | 94 | 1011.6 |
| 20260507051510 | 69 | 268 | 7.0 | 12.0 | 0.03 | 0.10 | 0.03 | 93 | 1011.7 |
| 20260507050019 | 70 | 247 | 5.0 | 10.0 | 0.01 | 0.08 | 0.01 | 93 | 1011.8 |
| 20260507044506 | 69 | 211 | 1.0 | 7.0 | 0.01 | 0.08 | 0.01 | 93 | 1011.1 |
| 20260507043004 | 70 | 252 | 0.0 | 10.0 | 0.02 | 0.07 | 0.00 | 93 | 1011.7 |
| 20260507041501 | 70 | 224 | 3.0 | 9.0 | 0.03 | 0.07 | 0.00 | 93 | 1010.9 |
| 20260507040059 | 70 | 271 | 1.0 | 5.0 | 0.05 | 0.07 | 0.00 | 93 | 1010.5 |
| 20260507034557 | 70 | 293 | 0.0 | 3.0 | 0.06 | 0.07 | 0.07 | 92 | 1011.3 |
| 20260507033056 | 71 | 224 | 3.0 | 11.0 | 0.04 | 0.05 | 0.05 | 90 | 1011.2 |
| 20260507031555 | 72 | 247 | 5.0 | 14.0 | 0.04 | 0.04 | 0.04 | 88 | 1011.5 |
| 20260507030055 | 72 | 251 | 5.0 | 11.0 | 0.01 | 0.01 | 0.01 | 87 | 1011.7 |
| 20260507024553 | 73 | 151 | 0.0 | 0.0 | 0.01 | 0.01 | 0.01 | 87 | 1011.8 |
| 20260507023052 | 74 | 144 | 0.0 | 7.0 | 0.01 | 0.01 | 0.01 | 83 | 1011.2 |
| 20260507021552 | 75 | 172 | 0.0 | 2.0 | 0.00 | 0.00 | 0.00 | 81 | 1011.3 |
| 20260507014558 | 77 | 258 | 2.0 | 6.0 | 0.00 | 0.00 | 0.00 | 77 | 1011.0 |
| 20260507013050 | 77 | 252 | 2.0 | 5.0 | 0.00 | 0.00 | 0.00 | 79 | 1011.5 |
| 20260507011550 | 77 | 269 | 2.0 | 6.0 | 0.00 | 0.00 | 0.00 | 76 | 1011.0 |
| 20260507010059 | 78 | 266 | 2.0 | 5.0 | 0.00 | 0.00 | 0.00 | 77 | 1011.4 |
| 20260507004548 | 78 | 249 | 2.0 | 7.0 | 0.00 | 0.00 | 0.00 | 76 | 1011.2 |
| 20260507003048 | 78 | 228 | 1.0 | 5.0 | 0.00 | 0.00 | 0.00 | 75 | 1011.4 |
| 20260507001554 | 78 | 262 | 4.0 | 8.0 | 0.00 | 0.00 | 0.00 | 74 | 1011.4 |
| 20260507000046 | 79 | 236 | 3.0 | 9.0 | 0.00 | 0.00 | 0.00 | 74 | 1010.7 |
| 20260506234544 | 79 | 195 | 5.0 | 10.0 | 0.00 | 0.00 | 0.00 | 75 | 1010.8 |
| 20260506233044 | 79 | 245 | 1.0 | 7.0 | 0.00 | 0.00 | 0.00 | 72 | 1010.3 |
| 20260506231602 | 80 | 236 | 1.0 | 7.0 | 0.00 | 0.00 | 0.00 | 71 | 1010.2 |
| 20260506230100 | 80 | 240 | 6.0 | 12.0 | 0.00 | 0.00 | 0.00 | 70 | 1011.1 |
| 20260506224541 | 80 | 280 | 4.0 | 10.0 | 0.00 | 0.00 | 0.00 | 71 | 1011.2 |
| 20260506223039 | 81 | 240 | 3.0 | 10.0 | 0.00 | 0.00 | 0.00 | 70 | 1010.9 |
| 20260506221541 | 81 | 226 | 5.0 | 12.0 | 0.00 | 0.00 | 0.00 | 70 | 1010.5 |
| 20260506220040 | 80 | 245 | 6.0 | 11.0 | 0.00 | 0.00 | 0.00 | 71 | 1010.9 |
| 20260506214537 | 81 | 251 | 6.0 | 12.0 | 0.00 | 0.00 | 0.00 | 68 | 1010.8 |
| 20260506213035 | 81 | 269 | 7.0 | 15.0 | 0.00 | 0.00 | 0.00 | 68 | 1010.8 |
| 20260506211535 | 81 | 233 | 7.0 | 13.0 | 0.00 | 0.00 | 0.00 | 68 | 1010.8 |
| 20260506210032 | 82 | 171 | 4.0 | 11.0 | 0.00 | 0.00 | 0.00 | 66 | 1011.0 |
| 20260506204528 | 82 | 250 | 5.0 | 11.0 | 0.00 | 0.00 | 0.00 | 65 | 1011.6 |
| 20260506203022 | 81 | 229 | 4.0 | 11.0 | 0.00 | 0.00 | 0.00 | 68 | 1011.7 |
| 20260506201528 | 81 | 245 | 7.0 | 13.0 | 0.00 | 0.00 | 0.00 | 67 | 1011.8 |
| 20260506200016 | 81 | 264 | 5.0 | 13.0 | 0.00 | 0.00 | 0.00 | 66 | 1012.2 |
| 20260506194514 | 81 | 271 | 4.0 | 12.0 | 0.00 | 0.00 | 0.00 | 65 | 1012.4 |
| 20260506193013 | 80 | 269 | 8.0 | 13.0 | 0.00 | 0.00 | 0.00 | 63 | 1012.7 |
| 20260506191513 | 81 | 224 | 5.0 | 14.0 | 0.00 | 0.00 | 0.00 | 64 | 1013.0 |
| 20260506190015 | 81 | 226 | 2.0 | 8.0 | 0.00 | 0.00 | 0.00 | 64 | 1013.2 |
| 20260506184518 | 81 | 236 | 2.0 | 12.0 | 0.00 | 0.00 | 0.00 | 63 | 1013.3 |
| 20260506183006 | 81 | 245 | 4.0 | 12.0 | 0.00 | 0.00 | 0.00 | 62 | 1013.4 |
| 20260506181505 | 80 | 50 | 7.0 | 15.0 | 0.00 | 0.00 | 0.00 | 61 | 1013.3 |
| 20260506180005 | 80 | 246 | 6.0 | 13.0 | 0.00 | 0.00 | 0.00 | 60 | 1013.2 |
| 20260506174505 | 79 | 258 | 2.0 | 12.0 | 0.00 | 0.00 | 0.00 | 61 | 1013.2 |
| 20260506173100 | 78 | 257 | 6.0 | 13.0 | 0.00 | 0.00 | 0.00 | 61 | 1013.4 |
| 20260506171607 | 78 | 243 | 5.0 | 11.0 | 0.00 | 0.00 | 0.00 | 65 | 1013.9 |
| 20260506170058 | 77 | 219 | 5.0 | 13.0 | 0.00 | 0.00 | 0.00 | 63 | 1014.2 |
| 20260506164553 | 77 | 226 | 4.0 | 13.0 | 0.00 | 0.00 | 0.00 | 66 | 1014.3 |
| 20260506163050 | 76 | 261 | 2.0 | 13.0 | 0.00 | 0.00 | 0.00 | 68 | 1014.6 |
| 20260506161549 | 75 | 260 | 6.0 | 10.0 | 0.00 | 0.00 | 0.00 | 69 | 1014.9 |
| 20260506160059 | 75 | 265 | 5.0 | 11.0 | 0.00 | 0.00 | 0.00 | 69 | 1015.1 |
| 20260506154546 | 74 | 249 | 6.0 | 12.0 | 0.00 | 0.00 | 0.00 | 70 | 1015.3 |
| 20260506153043 | 74 | 206 | 3.0 | 8.0 | 0.00 | 0.00 | 0.00 | 75 | 1015.1 |
| 20260506151543 | 73 | 305 | 2.0 | 6.0 | 0.00 | 0.00 | 0.00 | 74 | 1015.1 |
| 20260506150039 | 73 | 269 | 5.0 | 8.0 | 0.00 | 0.00 | 0.00 | 77 | 1015.2 |
| 20260506144550 | 72 | 253 | 4.0 | 13.0 | 0.00 | 0.00 | 0.00 | 79 | 1014.9 |
| 20260506143034 | 72 | 245 | 3.0 | 9.0 | 0.00 | 0.00 | 0.00 | 81 | 1014.8 |
| 20260506141529 | 71 | 246 | 4.0 | 10.0 | 0.00 | 0.00 | 0.00 | 83 | 1014.7 |
| 20260506140032 | 71 | 272 | 5.0 | 12.0 | 0.00 | 0.00 | 0.00 | 82 | 1014.5 |
| 20260506134524 | 69 | 245 | 4.0 | 10.0 | 0.00 | 0.00 | 0.00 | 85 | 1014.3 |
| 20260506133028 | 68 | 237 | 2.0 | 5.0 | 0.00 | 0.00 | 0.00 | 86 | 1014.1 |
| 20260506131519 | 67 | 277 | 3.0 | 8.0 | 0.00 | 0.00 | 0.00 | 86 | 1014.4 |